Terminal Aerodrome Forecast
Issued by NWS Paducah, KY

Home | Current Version | Previous Version | Text Only | Print | Product List | Glossary On
Versions: 1 2 3 4 5 6 7 8 9 10 11 12 13 14 15 16 17 18 19
000
FTUS43 KPAH 222327
TAFPAH
TAF
KPAH 222327Z 2300/2324 VRB05KT P6SM OVC009
      TEMPO 2302/2305 5SM -SHRA BR BKN006
     FM230500 VRB05KT 4SM -SHRA BR OVC008
      TEMPO 2307/2311 2SM -TSRA BR BKN005CB
     FM231400 24007KT P6SM -SHRA OVC008
     FM232000 29005KT P6SM VCSH OVC010=

USA.gov is the U.S. government's official web portal to all federal, state and local government web resources and services.